»·PEaware :: N21705 KLAX-KSAN

N21705 :: KLAX-KSAN

FLIGHT INFORMATION

Flight Status: Arrived
Operator: Privately registered:
United States
More flights under this callsign
Pilot: Anonymous 33140 (33140)
Aircraft: CESSNA 172 SKYHAWK
(C172)
More flights by this aircraft type
Origin: KLAX Los Angeles Intl
United States
Destination: KSAN San Diego Intl-Lindbergh
United States
More flights between these airports :: More routes between these airports
Route:
File this flight plan on PilotEdge
Remarks:
Altitude:
(Current/Filed)
5,500ft
Speed:
(Current/Filed)
110kts
Departed: 12-Jan-21 01:53 PM
Arrived: 12-Jan-21 02:45 PM
Distance/Time
Traveled:
95nm/0:52
Distance/Time
To Go:
Arrived

Flight Plot

Page will automatically refresh every two minutes.


Map Options




Map Legend


Flown Route
Filed Route
Departure Airport
Arrival Airport
Navaid (VOR, NDB)
Fix

Horizontal Profiles

Position Reports

Time Latitude Longitude Heading Altitude Ground
Speed
12-Jan-21 13:33 33.933979 -118.387039 174 120ft 0kts
12-Jan-21 13:34 33.933979 -118.387039 174 120ft 0kts
12-Jan-21 13:35 33.933979 -118.387039 174 120ft 0kts
12-Jan-21 13:36 33.933979 -118.387039 174 120ft 0kts
12-Jan-21 13:37 33.933979 -118.387039 174 120ft 0kts
12-Jan-21 13:38 33.933979 -118.387039 174 120ft 0kts
12-Jan-21 13:39 33.933979 -118.387039 174 120ft 0kts
12-Jan-21 13:40 33.933979 -118.387039 174 120ft 0kts
12-Jan-21 13:41 33.933979 -118.387039 174 120ft 0kts
12-Jan-21 13:43 33.933979 -118.387039 174 120ft 0kts
12-Jan-21 13:44 33.933979 -118.387039 174 120ft 0kts
12-Jan-21 13:45 33.933979 -118.387039 174 120ft 0kts
12-Jan-21 13:46 33.933979 -118.387039 174 120ft 0kts
12-Jan-21 13:47 33.933979 -118.387039 174 120ft 0kts
12-Jan-21 13:48 33.934527 -118.387076 355 120ft 4kts
12-Jan-21 13:49 33.935802 -118.386107 82 120ft 19kts
12-Jan-21 13:50 33.936400 -118.382758 0 120ft 6kts
12-Jan-21 13:51 33.936442 -118.382758 359 120ft 0kts
12-Jan-21 13:52 33.936443 -118.382758 359 120ft 0kts
12-Jan-21 13:53 33.936091 -118.395328 262 331ft 71kts
12-Jan-21 13:54 33.933948 -118.418521 262 1156ft 70kts
12-Jan-21 13:55 33.921753 -118.430927 171 1887ft 75kts
12-Jan-21 13:56 33.901656 -118.425510 161 2600ft 75kts
12-Jan-21 13:57 33.881661 -118.417561 160 3285ft 75kts
12-Jan-21 13:57 33.861833 -118.408981 152 3551ft 108kts
12-Jan-21 13:59 33.833130 -118.381320 134 3847ft 117kts
12-Jan-21 14:00 33.809385 -118.353573 133 3537ft 119kts
12-Jan-21 14:01 33.784587 -118.324092 133 3508ft 130kts
12-Jan-21 14:01 33.762794 -118.298007 133 3502ft 129kts
12-Jan-21 14:02 33.738131 -118.268567 133 3751ft 122kts
12-Jan-21 14:03 33.714323 -118.239215 122 3976ft 122kts
12-Jan-21 14:04 33.697640 -118.203741 115 4171ft 122kts
12-Jan-21 14:05 33.681669 -118.167720 115 4358ft 122kts
12-Jan-21 14:06 33.658333 -118.138084 137 4524ft 124kts
12-Jan-21 14:07 33.631792 -118.111052 137 4685ft 125kts
12-Jan-21 14:08 33.606124 -118.085055 137 5028ft 121kts
12-Jan-21 14:09 33.580470 -118.059211 137 5390ft 116kts
12-Jan-21 14:10 33.554364 -118.032796 136 5515ft 128kts
12-Jan-21 14:11 33.528722 -118.002233 130 5521ft 131kts
12-Jan-21 14:12 33.504254 -117.969806 129 5522ft 131kts
12-Jan-21 14:13 33.480045 -117.937063 127 5522ft 130kts
12-Jan-21 14:14 33.457046 -117.903442 126 5523ft 130kts
12-Jan-21 14:15 33.434175 -117.869664 126 5522ft 130kts
12-Jan-21 14:16 33.411315 -117.835855 126 5522ft 130kts
12-Jan-21 14:17 33.388234 -117.802081 129 5522ft 131kts
12-Jan-21 14:18 33.363239 -117.770162 131 5522ft 131kts
12-Jan-21 14:19 33.337909 -117.738675 131 5518ft 131kts
12-Jan-21 14:20 33.312558 -117.707098 131 5512ft 131kts
12-Jan-21 14:21 33.287290 -117.675551 131 5513ft 131kts
12-Jan-21 14:22 33.262095 -117.644149 131 5512ft 130kts
12-Jan-21 14:23 33.237063 -117.612829 131 5512ft 130kts
12-Jan-21 14:24 33.212135 -117.581549 131 5495ft 130kts
12-Jan-21 14:25 33.187281 -117.550206 131 5494ft 129kts
12-Jan-21 14:26 33.162679 -117.518981 131 5494ft 129kts
12-Jan-21 14:27 33.138083 -117.487686 131 5494ft 129kts
12-Jan-21 14:28 33.113621 -117.456427 131 5494ft 128kts
12-Jan-21 14:29 33.089914 -117.426090 131 5380ft 122kts
12-Jan-21 14:30 33.066647 -117.396286 131 5092ft 124kts
12-Jan-21 14:31 33.042394 -117.366223 135 4660ft 126kts
12-Jan-21 14:32 33.015304 -117.339856 141 4268ft 125kts
12-Jan-21 14:33 32.986233 -117.317621 152 3906ft 124kts
12-Jan-21 14:34 32.954893 -117.299369 153 3536ft 121kts
12-Jan-21 14:35 32.924757 -117.284124 162 3493ft 115kts
12-Jan-21 14:36 32.893507 -117.273910 164 3487ft 123kts
12-Jan-21 14:37 32.859182 -117.262998 164 3483ft 129kts
12-Jan-21 14:38 32.827462 -117.243939 144 3486ft 129kts
12-Jan-21 14:39 32.796171 -117.223680 154 2964ft 130kts
12-Jan-21 14:40 32.763903 -117.206215 151 1965ft 125kts
12-Jan-21 14:41 32.744310 -117.175871 108 1389ft 106kts
12-Jan-21 14:42 32.731345 -117.155282 213 1235ft 91kts
12-Jan-21 14:43 32.731639 -117.181908 288 26ft 67kts
12-Jan-21 14:44 32.734052 -117.188096 7 16ft 0kts
12-Jan-21 14:45 32.734052 -117.188096 7 16ft 0kts
12-Jan-21 14:46 32.734573 -117.188451 2 16ft 6kts
12-Jan-21 14:47 32.735297 -117.188101 16 16ft 0kts
12-Jan-21 14:48 32.735297 -117.188101 16 16ft 0kts

Navigation Log

Ident Type
Flight plan parsing failed, navigation log unavailable